sensor_id;sensor_type;location;lat;lon;timestamp;temperature;humidity
56771;DHT22;42641;59.794;17.616;2023-03-23T00:01:09;7.70;99.90
56771;DHT22;42641;59.794;17.616;2023-03-23T00:03:47;7.70;99.90
56771;DHT22;42641;59.794;17.616;2023-03-23T00:06:14;7.60;99.90
56771;DHT22;42641;59.794;17.616;2023-03-23T00:08:48;7.50;99.90
56771;DHT22;42641;59.794;17.616;2023-03-23T00:11:18;7.40;99.90
56771;DHT22;42641;59.794;17.616;2023-03-23T00:13:49;7.50;99.90
56771;DHT22;42641;59.794;17.616;2023-03-23T00:16:23;7.40;99.90
56771;DHT22;42641;59.794;17.616;2023-03-23T00:18:59;7.40;99.90
56771;DHT22;42641;59.794;17.616;2023-03-23T00:21:30;7.40;99.90
56771;DHT22;42641;59.794;17.616;2023-03-23T00:24:01;7.30;99.90
56771;DHT22;42641;59.794;17.616;2023-03-23T00:26:28;7.30;99.90
56771;DHT22;42641;59.794;17.616;2023-03-23T00:28:55;7.30;99.90
56771;DHT22;42641;59.794;17.616;2023-03-23T00:31:22;7.30;99.90
56771;DHT22;42641;59.794;17.616;2023-03-23T00:33:49;7.20;99.90
56771;DHT22;42641;59.794;17.616;2023-03-23T00:36:15;7.20;99.90
56771;DHT22;42641;59.794;17.616;2023-03-23T00:38:43;7.20;99.90
56771;DHT22;42641;59.794;17.616;2023-03-23T00:41:10;7.20;99.90
56771;DHT22;42641;59.794;17.616;2023-03-23T00:43:37;7.20;99.90
56771;DHT22;42641;59.794;17.616;2023-03-23T00:46:05;7.10;99.90
56771;DHT22;42641;59.794;17.616;2023-03-23T00:48:36;7.00;99.90
56771;DHT22;42641;59.794;17.616;2023-03-23T00:51:11;7.00;99.90
56771;DHT22;42641;59.794;17.616;2023-03-23T00:53:39;6.90;99.90
56771;DHT22;42641;59.794;17.616;2023-03-23T00:56:07;6.90;99.90
56771;DHT22;42641;59.794;17.616;2023-03-23T00:58:34;6.80;99.90
56771;DHT22;42641;59.794;17.616;2023-03-23T01:01:01;6.70;99.90
56771;DHT22;42641;59.794;17.616;2023-03-23T01:03:28;6.70;99.90
56771;DHT22;42641;59.794;17.616;2023-03-23T01:06:04;6.70;99.90
56771;DHT22;42641;59.794;17.616;2023-03-23T01:08:31;6.60;99.90
56771;DHT22;42641;59.794;17.616;2023-03-23T01:11:04;6.50;99.90
56771;DHT22;42641;59.794;17.616;2023-03-23T01:13:31;6.40;99.90
56771;DHT22;42641;59.794;17.616;2023-03-23T01:15:58;6.40;99.90
56771;DHT22;42641;59.794;17.616;2023-03-23T01:18:25;6.40;99.90
56771;DHT22;42641;59.794;17.616;2023-03-23T01:20:51;6.30;99.90
56771;DHT22;42641;59.794;17.616;2023-03-23T01:23:18;6.30;99.90
56771;DHT22;42641;59.794;17.616;2023-03-23T01:25:44;6.30;99.90
56771;DHT22;42641;59.794;17.616;2023-03-23T01:28:11;6.10;99.90
56771;DHT22;42641;59.794;17.616;2023-03-23T01:30:38;6.10;99.90
56771;DHT22;42641;59.794;17.616;2023-03-23T01:33:04;6.10;99.90
56771;DHT22;42641;59.794;17.616;2023-03-23T01:35:30;6.10;99.90
56771;DHT22;42641;59.794;17.616;2023-03-23T01:37:57;6.00;99.90
56771;DHT22;42641;59.794;17.616;2023-03-23T01:40:26;6.00;99.90
56771;DHT22;42641;59.794;17.616;2023-03-23T01:42:53;5.90;99.90
56771;DHT22;42641;59.794;17.616;2023-03-23T01:47:49;5.90;99.90
56771;DHT22;42641;59.794;17.616;2023-03-23T01:50:19;5.90;99.90
56771;DHT22;42641;59.794;17.616;2023-03-23T01:52:51;5.80;99.90
56771;DHT22;42641;59.794;17.616;2023-03-23T01:55:20;5.80;99.90
56771;DHT22;42641;59.794;17.616;2023-03-23T01:57:48;5.80;99.90
56771;DHT22;42641;59.794;17.616;2023-03-23T02:00:16;5.70;99.90
56771;DHT22;42641;59.794;17.616;2023-03-23T02:02:49;5.80;99.90
56771;DHT22;42641;59.794;17.616;2023-03-23T02:07:59;5.70;99.90
56771;DHT22;42641;59.794;17.616;2023-03-23T02:10:32;5.60;99.90
56771;DHT22;42641;59.794;17.616;2023-03-23T02:13:00;5.60;99.90
56771;DHT22;42641;59.794;17.616;2023-03-23T02:15:45;5.70;99.90
56771;DHT22;42641;59.794;17.616;2023-03-23T02:24:38;5.60;99.90
56771;DHT22;42641;59.794;17.616;2023-03-23T02:35:39;5.50;99.90
56771;DHT22;42641;59.794;17.616;2023-03-23T02:38:15;5.50;99.90
56771;DHT22;42641;59.794;17.616;2023-03-23T02:40:47;5.50;99.90
56771;DHT22;42641;59.794;17.616;2023-03-23T02:43:18;5.50;99.90
56771;DHT22;42641;59.794;17.616;2023-03-23T02:45:46;5.50;99.90
56771;DHT22;42641;59.794;17.616;2023-03-23T02:48:15;5.40;99.90
56771;DHT22;42641;59.794;17.616;2023-03-23T02:50:46;5.40;99.90
56771;DHT22;42641;59.794;17.616;2023-03-23T02:53:16;5.50;99.90
56771;DHT22;42641;59.794;17.616;2023-03-23T02:55:44;5.50;99.90
56771;DHT22;42641;59.794;17.616;2023-03-23T02:58:16;5.50;99.90
56771;DHT22;42641;59.794;17.616;2023-03-23T03:00:43;5.40;99.90
56771;DHT22;42641;59.794;17.616;2023-03-23T03:03:13;5.40;99.90
56771;DHT22;42641;59.794;17.616;2023-03-23T03:08:48;5.40;99.90
56771;DHT22;42641;59.794;17.616;2023-03-23T03:11:18;5.40;99.90
56771;DHT22;42641;59.794;17.616;2023-03-23T03:14:11;5.40;99.90
56771;DHT22;42641;59.794;17.616;2023-03-23T03:16:49;5.50;99.90
56771;DHT22;42641;59.794;17.616;2023-03-23T03:19:33;5.40;99.90
56771;DHT22;42641;59.794;17.616;2023-03-23T03:22:02;5.40;99.90
56771;DHT22;42641;59.794;17.616;2023-03-23T03:24:40;5.40;99.90
56771;DHT22;42641;59.794;17.616;2023-03-23T03:27:15;5.50;99.90
56771;DHT22;42641;59.794;17.616;2023-03-23T03:29:55;5.50;99.90
56771;DHT22;42641;59.794;17.616;2023-03-23T03:32:31;5.40;99.90
56771;DHT22;42641;59.794;17.616;2023-03-23T03:35:03;5.40;99.90
56771;DHT22;42641;59.794;17.616;2023-03-23T03:37:35;5.40;99.90
56771;DHT22;42641;59.794;17.616;2023-03-23T03:40:10;5.40;99.90
56771;DHT22;42641;59.794;17.616;2023-03-23T03:42:41;5.40;99.90
56771;DHT22;42641;59.794;17.616;2023-03-23T03:45:10;5.40;99.90
56771;DHT22;42641;59.794;17.616;2023-03-23T03:47:38;5.30;99.90
56771;DHT22;42641;59.794;17.616;2023-03-23T03:50:05;5.30;99.90
56771;DHT22;42641;59.794;17.616;2023-03-23T03:52:33;5.30;99.90
56771;DHT22;42641;59.794;17.616;2023-03-23T03:55:00;5.30;99.90
56771;DHT22;42641;59.794;17.616;2023-03-23T03:57:28;5.30;99.90
56771;DHT22;42641;59.794;17.616;2023-03-23T04:00:23;5.30;99.90
56771;DHT22;42641;59.794;17.616;2023-03-23T04:02:50;5.30;99.90
56771;DHT22;42641;59.794;17.616;2023-03-23T04:05:41;5.30;99.90
56771;DHT22;42641;59.794;17.616;2023-03-23T04:08:08;5.30;99.90
56771;DHT22;42641;59.794;17.616;2023-03-23T04:10:34;5.30;99.90
56771;DHT22;42641;59.794;17.616;2023-03-23T04:13:02;5.30;99.90
56771;DHT22;42641;59.794;17.616;2023-03-23T04:16:03;5.30;99.90
56771;DHT22;42641;59.794;17.616;2023-03-23T04:18:32;5.40;99.90
56771;DHT22;42641;59.794;17.616;2023-03-23T04:21:03;5.40;99.90
56771;DHT22;42641;59.794;17.616;2023-03-23T04:23:31;5.50;99.90
56771;DHT22;42641;59.794;17.616;2023-03-23T04:26:02;5.50;99.90
56771;DHT22;42641;59.794;17.616;2023-03-23T04:28:35;5.60;99.90
56771;DHT22;42641;59.794;17.616;2023-03-23T04:31:20;5.60;99.90
56771;DHT22;42641;59.794;17.616;2023-03-23T04:33:52;5.60;99.90
56771;DHT22;42641;59.794;17.616;2023-03-23T04:36:21;5.60;99.90
56771;DHT22;42641;59.794;17.616;2023-03-23T04:39:02;5.60;99.90
56771;DHT22;42641;59.794;17.616;2023-03-23T04:41:30;5.70;99.90
56771;DHT22;42641;59.794;17.616;2023-03-23T04:44:15;5.70;99.90
56771;DHT22;42641;59.794;17.616;2023-03-23T04:46:52;5.70;99.90
56771;DHT22;42641;59.794;17.616;2023-03-23T04:49:21;5.70;99.90
56771;DHT22;42641;59.794;17.616;2023-03-23T04:51:58;5.80;99.90
56771;DHT22;42641;59.794;17.616;2023-03-23T04:54:40;5.80;99.90
56771;DHT22;42641;59.794;17.616;2023-03-23T04:57:07;5.90;99.90
56771;DHT22;42641;59.794;17.616;2023-03-23T04:59:35;5.90;99.90
56771;DHT22;42641;59.794;17.616;2023-03-23T05:02:13;5.80;99.90
56771;DHT22;42641;59.794;17.616;2023-03-23T05:04:44;5.80;99.90
56771;DHT22;42641;59.794;17.616;2023-03-23T05:07:14;5.80;99.90
56771;DHT22;42641;59.794;17.616;2023-03-23T05:09:47;5.90;99.90
56771;DHT22;42641;59.794;17.616;2023-03-23T05:12:15;5.90;99.90
56771;DHT22;42641;59.794;17.616;2023-03-23T05:14:51;5.90;99.90
56771;DHT22;42641;59.794;17.616;2023-03-23T05:17:20;5.90;99.90
56771;DHT22;42641;59.794;17.616;2023-03-23T05:19:51;5.90;99.90
56771;DHT22;42641;59.794;17.616;2023-03-23T05:22:41;6.00;99.90
56771;DHT22;42641;59.794;17.616;2023-03-23T05:25:11;6.00;99.90
56771;DHT22;42641;59.794;17.616;2023-03-23T05:27:42;6.00;99.90
56771;DHT22;42641;59.794;17.616;2023-03-23T05:30:32;6.00;99.90
56771;DHT22;42641;59.794;17.616;2023-03-23T05:33:00;6.00;99.90
56771;DHT22;42641;59.794;17.616;2023-03-23T05:35:41;6.00;99.90
56771;DHT22;42641;59.794;17.616;2023-03-23T05:38:08;6.00;99.90
56771;DHT22;42641;59.794;17.616;2023-03-23T05:40:35;6.00;99.90
56771;DHT22;42641;59.794;17.616;2023-03-23T05:43:22;6.00;99.90
56771;DHT22;42641;59.794;17.616;2023-03-23T05:46:18;6.10;99.90
56771;DHT22;42641;59.794;17.616;2023-03-23T05:48:45;6.10;99.90
56771;DHT22;42641;59.794;17.616;2023-03-23T05:51:16;6.00;99.90
56771;DHT22;42641;59.794;17.616;2023-03-23T05:53:44;6.10;99.90
56771;DHT22;42641;59.794;17.616;2023-03-23T05:56:13;6.10;99.90
56771;DHT22;42641;59.794;17.616;2023-03-23T05:59:01;6.10;99.90
56771;DHT22;42641;59.794;17.616;2023-03-23T06:01:30;6.10;99.90
56771;DHT22;42641;59.794;17.616;2023-03-23T06:03:58;6.10;99.90
56771;DHT22;42641;59.794;17.616;2023-03-23T06:06:33;6.00;99.90
56771;DHT22;42641;59.794;17.616;2023-03-23T06:09:07;6.10;99.90
56771;DHT22;42641;59.794;17.616;2023-03-23T06:11:54;6.10;99.90
56771;DHT22;42641;59.794;17.616;2023-03-23T06:14:37;6.10;99.90
56771;DHT22;42641;59.794;17.616;2023-03-23T06:17:05;6.10;99.90
56771;DHT22;42641;59.794;17.616;2023-03-23T06:19:32;6.10;99.90
56771;DHT22;42641;59.794;17.616;2023-03-23T06:22:10;6.10;99.90
56771;DHT22;42641;59.794;17.616;2023-03-23T06:24:43;6.10;99.90
56771;DHT22;42641;59.794;17.616;2023-03-23T06:27:12;6.10;99.90
56771;DHT22;42641;59.794;17.616;2023-03-23T06:29:42;6.20;99.90
56771;DHT22;42641;59.794;17.616;2023-03-23T06:32:12;6.20;99.90
56771;DHT22;42641;59.794;17.616;2023-03-23T06:34:41;6.30;99.90
56771;DHT22;42641;59.794;17.616;2023-03-23T06:37:37;6.30;99.90
56771;DHT22;42641;59.794;17.616;2023-03-23T06:40:13;6.30;99.90
56771;DHT22;42641;59.794;17.616;2023-03-23T06:42:43;6.40;99.90
56771;DHT22;42641;59.794;17.616;2023-03-23T06:45:33;6.40;99.90
56771;DHT22;42641;59.794;17.616;2023-03-23T06:48:18;6.50;99.90
56771;DHT22;42641;59.794;17.616;2023-03-23T06:50:46;6.50;99.90
56771;DHT22;42641;59.794;17.616;2023-03-23T06:53:15;6.60;99.90
56771;DHT22;42641;59.794;17.616;2023-03-23T06:55:43;6.70;99.90
56771;DHT22;42641;59.794;17.616;2023-03-23T06:58:10;6.70;99.90
56771;DHT22;42641;59.794;17.616;2023-03-23T07:00:37;6.70;99.90
56771;DHT22;42641;59.794;17.616;2023-03-23T07:03:04;6.60;99.90
56771;DHT22;42641;59.794;17.616;2023-03-23T07:05:33;6.70;99.90
56771;DHT22;42641;59.794;17.616;2023-03-23T07:08:00;6.70;99.90
56771;DHT22;42641;59.794;17.616;2023-03-23T07:10:41;6.70;99.90
56771;DHT22;42641;59.794;17.616;2023-03-23T07:13:10;6.70;99.90
56771;DHT22;42641;59.794;17.616;2023-03-23T07:15:47;6.70;99.90
56771;DHT22;42641;59.794;17.616;2023-03-23T07:18:14;6.80;99.90
56771;DHT22;42641;59.794;17.616;2023-03-23T07:20:50;6.70;99.90
56771;DHT22;42641;59.794;17.616;2023-03-23T07:23:18;6.80;99.90
56771;DHT22;42641;59.794;17.616;2023-03-23T07:25:51;6.80;99.90
56771;DHT22;42641;59.794;17.616;2023-03-23T07:28:23;6.80;99.90
56771;DHT22;42641;59.794;17.616;2023-03-23T07:30:51;6.90;99.90
56771;DHT22;42641;59.794;17.616;2023-03-23T07:33:18;6.80;99.90
56771;DHT22;42641;59.794;17.616;2023-03-23T07:35:45;6.90;99.90
56771;DHT22;42641;59.794;17.616;2023-03-23T07:38:15;6.90;99.90
56771;DHT22;42641;59.794;17.616;2023-03-23T07:40:46;7.00;99.90
56771;DHT22;42641;59.794;17.616;2023-03-23T07:43:16;7.00;99.90
56771;DHT22;42641;59.794;17.616;2023-03-23T07:46:01;7.10;99.90
56771;DHT22;42641;59.794;17.616;2023-03-23T07:48:37;7.20;99.90
56771;DHT22;42641;59.794;17.616;2023-03-23T07:51:06;7.20;99.90
56771;DHT22;42641;59.794;17.616;2023-03-23T07:53:33;7.20;99.90
56771;DHT22;42641;59.794;17.616;2023-03-23T07:56:18;7.20;99.90
56771;DHT22;42641;59.794;17.616;2023-03-23T07:58:46;7.30;99.90
56771;DHT22;42641;59.794;17.616;2023-03-23T08:01:13;7.40;99.90
56771;DHT22;42641;59.794;17.616;2023-03-23T08:03:42;7.40;99.90
56771;DHT22;42641;59.794;17.616;2023-03-23T08:06:32;7.50;99.90
56771;DHT22;42641;59.794;17.616;2023-03-23T08:09:26;7.70;99.90
56771;DHT22;42641;59.794;17.616;2023-03-23T08:12:22;7.70;99.90
56771;DHT22;42641;59.794;17.616;2023-03-23T08:15:01;7.60;99.90
56771;DHT22;42641;59.794;17.616;2023-03-23T08:18:00;7.60;99.90
56771;DHT22;42641;59.794;17.616;2023-03-23T08:20:45;7.80;99.90
56771;DHT22;42641;59.794;17.616;2023-03-23T08:23:31;7.80;99.90
56771;DHT22;42641;59.794;17.616;2023-03-23T08:26:17;7.90;99.90
56771;DHT22;42641;59.794;17.616;2023-03-23T08:29:02;8.10;99.90
56771;DHT22;42641;59.794;17.616;2023-03-23T08:31:48;8.00;99.90
56771;DHT22;42641;59.794;17.616;2023-03-23T08:34:43;7.90;99.90
56771;DHT22;42641;59.794;17.616;2023-03-23T08:37:28;7.90;99.90
56771;DHT22;42641;59.794;17.616;2023-03-23T08:40:19;7.90;99.90
56771;DHT22;42641;59.794;17.616;2023-03-23T08:42:50;7.70;99.90
56771;DHT22;42641;59.794;17.616;2023-03-23T08:45:36;7.70;99.90
56771;DHT22;42641;59.794;17.616;2023-03-23T08:48:22;7.70;99.90
56771;DHT22;42641;59.794;17.616;2023-03-23T08:51:11;7.90;99.90
56771;DHT22;42641;59.794;17.616;2023-03-23T08:53:51;8.00;99.90
56771;DHT22;42641;59.794;17.616;2023-03-23T08:56:42;8.10;99.90
56771;DHT22;42641;59.794;17.616;2023-03-23T08:59:29;8.20;99.90
56771;DHT22;42641;59.794;17.616;2023-03-23T09:02:34;8.30;99.90
56771;DHT22;42641;59.794;17.616;2023-03-23T09:05:17;8.60;99.90
56771;DHT22;42641;59.794;17.616;2023-03-23T09:08:10;8.70;99.90
56771;DHT22;42641;59.794;17.616;2023-03-23T09:10:38;8.90;99.90
56771;DHT22;42641;59.794;17.616;2023-03-23T09:13:05;9.00;99.90
56771;DHT22;42641;59.794;17.616;2023-03-23T09:15:32;9.20;99.90
56771;DHT22;42641;59.794;17.616;2023-03-23T09:17:59;9.20;99.90
56771;DHT22;42641;59.794;17.616;2023-03-23T09:20:28;9.30;99.90
56771;DHT22;42641;59.794;17.616;2023-03-23T09:22:56;9.30;99.90
56771;DHT22;42641;59.794;17.616;2023-03-23T09:25:25;9.40;99.90
56771;DHT22;42641;59.794;17.616;2023-03-23T09:27:55;9.40;99.90
56771;DHT22;42641;59.794;17.616;2023-03-23T09:30:24;9.40;99.90
56771;DHT22;42641;59.794;17.616;2023-03-23T09:32:53;9.70;99.90
56771;DHT22;42641;59.794;17.616;2023-03-23T09:35:20;10.00;99.90
56771;DHT22;42641;59.794;17.616;2023-03-23T09:37:52;10.00;99.90
56771;DHT22;42641;59.794;17.616;2023-03-23T09:50:48;10.20;99.90
56771;DHT22;42641;59.794;17.616;2023-03-23T09:53:24;10.00;99.90
56771;DHT22;42641;59.794;17.616;2023-03-23T09:55:53;10.00;99.90
56771;DHT22;42641;59.794;17.616;2023-03-23T09:58:50;10.20;99.90
56771;DHT22;42641;59.794;17.616;2023-03-23T10:01:24;10.40;99.90
56771;DHT22;42641;59.794;17.616;2023-03-23T10:03:59;10.60;99.90
56771;DHT22;42641;59.794;17.616;2023-03-23T10:06:28;10.60;99.90
56771;DHT22;42641;59.794;17.616;2023-03-23T10:08:57;10.60;99.90
56771;DHT22;42641;59.794;17.616;2023-03-23T10:12:07;10.40;99.90
56771;DHT22;42641;59.794;17.616;2023-03-23T10:17:29;10.60;99.90
56771;DHT22;42641;59.794;17.616;2023-03-23T10:20:42;10.70;99.90
56771;DHT22;42641;59.794;17.616;2023-03-23T10:23:47;10.80;99.90
56771;DHT22;42641;59.794;17.616;2023-03-23T10:28:42;11.10;99.90
56771;DHT22;42641;59.794;17.616;2023-03-23T10:31:31;11.20;99.90
56771;DHT22;42641;59.794;17.616;2023-03-23T10:34:05;11.10;99.90
56771;DHT22;42641;59.794;17.616;2023-03-23T10:36:38;10.90;99.90
56771;DHT22;42641;59.794;17.616;2023-03-23T10:39:16;11.00;99.90
56771;DHT22;42641;59.794;17.616;2023-03-23T10:41:43;11.20;99.90
56771;DHT22;42641;59.794;17.616;2023-03-23T10:44:21;11.50;99.90
56771;DHT22;42641;59.794;17.616;2023-03-23T10:46:59;11.60;99.90
56771;DHT22;42641;59.794;17.616;2023-03-23T10:49:32;11.70;99.90
56771;DHT22;42641;59.794;17.616;2023-03-23T10:52:52;11.70;99.90
56771;DHT22;42641;59.794;17.616;2023-03-23T10:55:19;11.70;99.90
56771;DHT22;42641;59.794;17.616;2023-03-23T10:58:03;11.70;99.90
56771;DHT22;42641;59.794;17.616;2023-03-23T11:00:31;11.70;99.90
56771;DHT22;42641;59.794;17.616;2023-03-23T11:03:00;11.70;99.90
56771;DHT22;42641;59.794;17.616;2023-03-23T11:05:48;11.90;99.90
56771;DHT22;42641;59.794;17.616;2023-03-23T11:08:19;11.90;99.90
56771;DHT22;42641;59.794;17.616;2023-03-23T11:10:58;12.10;99.90
56771;DHT22;42641;59.794;17.616;2023-03-23T11:13:31;12.30;99.90
56771;DHT22;42641;59.794;17.616;2023-03-23T11:15:58;12.30;99.90
56771;DHT22;42641;59.794;17.616;2023-03-23T11:18:47;12.50;99.90
56771;DHT22;42641;59.794;17.616;2023-03-23T11:21:13;13.00;99.90
56771;DHT22;42641;59.794;17.616;2023-03-23T11:23:43;13.90;99.90
56771;DHT22;42641;59.794;17.616;2023-03-23T11:28:55;14.90;99.90
56771;DHT22;42641;59.794;17.616;2023-03-23T11:31:27;15.10;99.90
56771;DHT22;42641;59.794;17.616;2023-03-23T11:34:01;15.50;99.90
56771;DHT22;42641;59.794;17.616;2023-03-23T11:36:42;15.50;99.90
56771;DHT22;42641;59.794;17.616;2023-03-23T11:41:48;16.10;99.90
56771;DHT22;42641;59.794;17.616;2023-03-23T11:44:15;16.20;99.90
56771;DHT22;42641;59.794;17.616;2023-03-23T11:46:49;16.50;99.10
56771;DHT22;42641;59.794;17.616;2023-03-23T11:52:21;16.40;98.10
56771;DHT22;42641;59.794;17.616;2023-03-23T11:55:00;16.40;97.90
56771;DHT22;42641;59.794;17.616;2023-03-23T11:57:30;16.70;98.10
56771;DHT22;42641;59.794;17.616;2023-03-23T11:59:57;17.10;96.50
56771;DHT22;42641;59.794;17.616;2023-03-23T12:10:41;16.70;93.60
56771;DHT22;42641;59.794;17.616;2023-03-23T12:16:03;17.10;94.80
56771;DHT22;42641;59.794;17.616;2023-03-23T12:18:47;17.50;93.60
56771;DHT22;42641;59.794;17.616;2023-03-23T12:26:51;17.60;92.00
56771;DHT22;42641;59.794;17.616;2023-03-23T12:41:10;18.10;89.10
56771;DHT22;42641;59.794;17.616;2023-03-23T12:43:57;18.20;89.50
56771;DHT22;42641;59.794;17.616;2023-03-23T12:52:11;18.10;89.90
56771;DHT22;42641;59.794;17.616;2023-03-23T12:54:52;18.50;86.80
56771;DHT22;42641;59.794;17.616;2023-03-23T12:57:33;18.20;87.30
56771;DHT22;42641;59.794;17.616;2023-03-23T13:00:35;18.50;86.20
56771;DHT22;42641;59.794;17.616;2023-03-23T13:03:25;18.90;84.80
56771;DHT22;42641;59.794;17.616;2023-03-23T13:08:58;19.00;85.10
56771;DHT22;42641;59.794;17.616;2023-03-23T13:17:36;18.90;84.80
56771;DHT22;42641;59.794;17.616;2023-03-23T13:20:30;18.70;85.00
56771;DHT22;42641;59.794;17.616;2023-03-23T13:23:35;19.00;85.90
56771;DHT22;42641;59.794;17.616;2023-03-23T13:26:16;19.40;83.00
56771;DHT22;42641;59.794;17.616;2023-03-23T13:31:21;18.80;87.60
56771;DHT22;42641;59.794;17.616;2023-03-23T13:33:53;18.80;84.70
56771;DHT22;42641;59.794;17.616;2023-03-23T13:36:36;18.50;85.90
56771;DHT22;42641;59.794;17.616;2023-03-23T13:39:06;18.70;88.70
56771;DHT22;42641;59.794;17.616;2023-03-23T13:41:58;19.10;85.00
56771;DHT22;42641;59.794;17.616;2023-03-23T13:44:26;18.90;85.40
56771;DHT22;42641;59.794;17.616;2023-03-23T13:47:08;18.50;84.00
56771;DHT22;42641;59.794;17.616;2023-03-23T13:49:56;17.80;87.40
56771;DHT22;42641;59.794;17.616;2023-03-23T14:10:58;16.60;89.80
56771;DHT22;42641;59.794;17.616;2023-03-23T14:13:50;16.80;89.50
56771;DHT22;42641;59.794;17.616;2023-03-23T14:16:24;16.70;88.40
56771;DHT22;42641;59.794;17.616;2023-03-23T14:18:56;16.70;90.20
56771;DHT22;42641;59.794;17.616;2023-03-23T14:21:39;17.00;88.50
56771;DHT22;42641;59.794;17.616;2023-03-23T14:24:16;17.00;87.70
56771;DHT22;42641;59.794;17.616;2023-03-23T14:26:44;17.20;88.20
56771;DHT22;42641;59.794;17.616;2023-03-23T14:29:13;17.50;87.30
56771;DHT22;42641;59.794;17.616;2023-03-23T14:31:40;17.60;87.80
56771;DHT22;42641;59.794;17.616;2023-03-23T14:34:19;18.10;86.60
56771;DHT22;42641;59.794;17.616;2023-03-23T14:36:46;18.60;85.20
56771;DHT22;42641;59.794;17.616;2023-03-23T14:39:31;18.90;84.20
56771;DHT22;42641;59.794;17.616;2023-03-23T14:42:23;19.20;82.20
56771;DHT22;42641;59.794;17.616;2023-03-23T14:44:51;19.10;82.90
56771;DHT22;42641;59.794;17.616;2023-03-23T14:47:33;19.00;82.00
56771;DHT22;42641;59.794;17.616;2023-03-23T14:50:03;18.70;81.50
56771;DHT22;42641;59.794;17.616;2023-03-23T14:52:35;18.00;83.20
56771;DHT22;42641;59.794;17.616;2023-03-23T14:55:14;17.50;84.00
56771;DHT22;42641;59.794;17.616;2023-03-23T14:57:42;17.00;84.30
56771;DHT22;42641;59.794;17.616;2023-03-23T15:00:23;17.10;86.60
56771;DHT22;42641;59.794;17.616;2023-03-23T15:02:54;17.00;85.30
56771;DHT22;42641;59.794;17.616;2023-03-23T15:05:27;16.70;88.90
56771;DHT22;42641;59.794;17.616;2023-03-23T15:07:59;16.40;87.80
56771;DHT22;42641;59.794;17.616;2023-03-23T15:10:26;16.40;88.40
56771;DHT22;42641;59.794;17.616;2023-03-23T15:12:53;16.60;89.50
56771;DHT22;42641;59.794;17.616;2023-03-23T15:15:34;16.40;88.00
56771;DHT22;42641;59.794;17.616;2023-03-23T15:18:02;16.20;90.60
56771;DHT22;42641;59.794;17.616;2023-03-23T15:20:32;16.10;90.60
56771;DHT22;42641;59.794;17.616;2023-03-23T15:23:15;15.80;90.40
56771;DHT22;42641;59.794;17.616;2023-03-23T15:25:51;15.40;91.30
56771;DHT22;42641;59.794;17.616;2023-03-23T15:28:28;15.10;91.90
56771;DHT22;42641;59.794;17.616;2023-03-23T15:30:57;14.70;92.80
56771;DHT22;42641;59.794;17.616;2023-03-23T15:33:26;14.30;92.10
56771;DHT22;42641;59.794;17.616;2023-03-23T15:35:56;13.70;93.60
56771;DHT22;42641;59.794;17.616;2023-03-23T15:38:29;13.30;94.50
56771;DHT22;42641;59.794;17.616;2023-03-23T15:41:00;13.20;95.10
56771;DHT22;42641;59.794;17.616;2023-03-23T15:43:36;13.10;95.20
56771;DHT22;42641;59.794;17.616;2023-03-23T15:49:01;12.80;95.50
56771;DHT22;42641;59.794;17.616;2023-03-23T15:51:32;12.70;95.90
56771;DHT22;42641;59.794;17.616;2023-03-23T15:53:59;12.60;96.40
56771;DHT22;42641;59.794;17.616;2023-03-23T15:56:26;12.60;96.30
56771;DHT22;42641;59.794;17.616;2023-03-23T15:58:52;12.50;96.80
56771;DHT22;42641;59.794;17.616;2023-03-23T16:01:27;12.50;96.90
56771;DHT22;42641;59.794;17.616;2023-03-23T16:06:29;12.30;96.70
56771;DHT22;42641;59.794;17.616;2023-03-23T16:08:56;12.20;96.80
56771;DHT22;42641;59.794;17.616;2023-03-23T16:11:25;12.00;97.10
56771;DHT22;42641;59.794;17.616;2023-03-23T16:13:52;11.70;97.50
56771;DHT22;42641;59.794;17.616;2023-03-23T16:16:26;11.50;97.60
56771;DHT22;42641;59.794;17.616;2023-03-23T16:18:54;11.30;97.60
56771;DHT22;42641;59.794;17.616;2023-03-23T16:21:20;11.10;98.10
56771;DHT22;42641;59.794;17.616;2023-03-23T16:23:47;11.00;98.30
56771;DHT22;42641;59.794;17.616;2023-03-23T16:26:14;10.80;98.60
56771;DHT22;42641;59.794;17.616;2023-03-23T16:28:42;10.50;98.90
56771;DHT22;42641;59.794;17.616;2023-03-23T16:31:09;10.40;99.60
56771;DHT22;42641;59.794;17.616;2023-03-23T16:33:35;10.30;99.50
56771;DHT22;42641;59.794;17.616;2023-03-23T16:36:02;10.30;99.80
56771;DHT22;42641;59.794;17.616;2023-03-23T16:38:29;10.20;99.90
56771;DHT22;42641;59.794;17.616;2023-03-23T16:40:55;10.10;99.90
56771;DHT22;42641;59.794;17.616;2023-03-23T16:46:18;9.90;99.90
56771;DHT22;42641;59.794;17.616;2023-03-23T16:48:44;9.80;99.90
56771;DHT22;42641;59.794;17.616;2023-03-23T16:51:34;9.80;99.90
56771;DHT22;42641;59.794;17.616;2023-03-23T16:57:04;9.70;99.90
56771;DHT22;42641;59.794;17.616;2023-03-23T16:59:31;9.60;99.90
56771;DHT22;42641;59.794;17.616;2023-03-23T17:04:43;9.60;99.90
56771;DHT22;42641;59.794;17.616;2023-03-23T17:07:11;9.50;99.90
56771;DHT22;42641;59.794;17.616;2023-03-23T17:09:38;9.30;99.90
56771;DHT22;42641;59.794;17.616;2023-03-23T17:15:02;9.20;99.90
56771;DHT22;42641;59.794;17.616;2023-03-23T17:17:29;9.30;99.90
56771;DHT22;42641;59.794;17.616;2023-03-23T17:19:55;9.20;99.90
56771;DHT22;42641;59.794;17.616;2023-03-23T17:22:22;9.10;99.90
56771;DHT22;42641;59.794;17.616;2023-03-23T17:24:49;9.10;99.90
56771;DHT22;42641;59.794;17.616;2023-03-23T17:27:16;9.10;99.90
56771;DHT22;42641;59.794;17.616;2023-03-23T17:29:44;9.10;99.90
56771;DHT22;42641;59.794;17.616;2023-03-23T17:32:13;9.10;99.90
56771;DHT22;42641;59.794;17.616;2023-03-23T17:34:40;9.10;99.90
56771;DHT22;42641;59.794;17.616;2023-03-23T17:37:07;9.00;99.90
56771;DHT22;42641;59.794;17.616;2023-03-23T17:39:34;9.00;99.90
56771;DHT22;42641;59.794;17.616;2023-03-23T17:42:01;8.90;99.90
56771;DHT22;42641;59.794;17.616;2023-03-23T17:44:27;8.90;99.90
56771;DHT22;42641;59.794;17.616;2023-03-23T17:46:53;8.80;99.90
56771;DHT22;42641;59.794;17.616;2023-03-23T17:49:23;8.80;99.90
56771;DHT22;42641;59.794;17.616;2023-03-23T17:51:49;8.80;99.90
56771;DHT22;42641;59.794;17.616;2023-03-23T17:54:16;8.60;99.90
56771;DHT22;42641;59.794;17.616;2023-03-23T17:56:42;8.50;99.90
56771;DHT22;42641;59.794;17.616;2023-03-23T18:02:10;8.40;99.90
56771;DHT22;42641;59.794;17.616;2023-03-23T18:04:39;8.40;99.90
56771;DHT22;42641;59.794;17.616;2023-03-23T18:07:08;8.40;99.90
56771;DHT22;42641;59.794;17.616;2023-03-23T18:09:34;8.40;99.90
56771;DHT22;42641;59.794;17.616;2023-03-23T18:12:01;8.40;99.90
56771;DHT22;42641;59.794;17.616;2023-03-23T18:14:27;8.30;99.90
56771;DHT22;42641;59.794;17.616;2023-03-23T18:16:54;8.30;99.90